Orinda, CA (94563)

1:20 PM PDT on August 29, 2015 (GMT -0700)
Southwood | | Change Station
CLOSE
Current Station
Personal Weather Station
Location: Orinda, CA
Elevation: 591 ft
Nearby Weather Stations

Elev 591 ft 37.88 °N, 122.18 °W | Updated 7 minutes ago

Partly Cloudy
Partly Cloudy
77.5 °F
Feels Like 79 °F
N
2.7
Wind Variable Wind from SW

Today
High -- | Low -- °F
--% Chance of Precip.
Yesterday
High -- | Low -- °F
Precip. -- in
6:35 AM 7:42 PM
Full, 100% visible
Pressure 29.96 in
Visibility 10.0 miles
Clouds Scattered Clouds 1800 ft
Mostly Cloudy 2500 ft
Heat Index 79 °F
Dew Point 62 °F
Humidity 58%
Rainfall 0.02 in
Snow Depth Not available.
UV 5 out of 12
Pollen 6.20 out of 12
Air Quality Not available.
Flu Activity Not available.
METAR KCCR 291953Z COR 20007KT 10SM SCT018 BKN025 24/17 A3000 RMK AO2 SLP145 T02390172
Pressure 29.96 in
Visibility 10.0 miles
Clouds Scattered Clouds 1800 ft
Mostly Cloudy 2500 ft
Heat Index 79 °F
Dew Point 62 °F
Humidity 58%
Rainfall 0.02 in
Snow Depth Not available.
UV 5 out of 12
Pollen 6.20 out of 12
Air Quality Not available.
Flu Activity Not available.
METAR KCCR 291953Z COR 20007KT 10SM SCT018 BKN025 24/17 A3000 RMK AO2 SLP145 T02390172

10-Day Weather Forecast

×

Almanac

Astronomy

Aug. 29, 2015 Rise Set
Actual Time
Civil Twilight
Nautical Twilight
Astronomical Twilight
Moon
Length of Visible Light
Length of Day
Tomorrow will be .
, % of the Moon is Illuminated

Today's Extremes

State Highs State Lows

Community

WunderPhotos

Upload Photos

1,850,795 photos uploaded!

WunderBlogs® & News

Nearby

Air Quality

  Air Quality AQ Index Pollutant
Not available.

Snow Depth

Station Depth Elevation

Earthquake Activity

City Distance Mag. Time & Date
Minimum magnitude displayed is 2.5.

Coastal Water Temperatures

Place Temperature

Stations

Nearby Weather Stations

Station Location Temp. Windchill Dew Point Humidity Wind Precip. Elev Updated Type